createdAt,value
2023-01-31T00:01:15.135Z,4.70
2023-01-31T00:03:45.182Z,3.67
2023-01-31T00:06:18.069Z,3.63
2023-01-31T00:08:46.964Z,3.27
2023-01-31T00:11:16.270Z,3.20
2023-01-31T00:13:44.816Z,4.30
2023-01-31T00:16:13.440Z,4.03
2023-01-31T00:18:41.704Z,3.57
2023-01-31T00:21:12.475Z,3.50
2023-01-31T00:23:41.257Z,3.50
2023-01-31T00:26:10.589Z,3.23
2023-01-31T00:28:39.343Z,3.30
2023-01-31T00:31:07.671Z,3.37
2023-01-31T00:33:36.040Z,3.23
2023-01-31T00:36:05.603Z,3.70
2023-01-31T00:38:35.243Z,3.67
2023-01-31T00:41:04.059Z,4.43
2023-01-31T00:43:32.691Z,3.50
2023-01-31T00:46:00.915Z,3.70
2023-01-31T00:48:29.362Z,3.60
2023-01-31T00:50:57.565Z,3.27
2023-01-31T00:53:25.836Z,4.10
2023-01-31T00:55:56.681Z,3.27
2023-01-31T00:58:24.863Z,4.53
2023-01-31T01:00:53.051Z,3.77
2023-01-31T01:03:21.204Z,3.70
2023-01-31T01:05:49.360Z,3.90
2023-01-31T01:08:17.712Z,4.00
2023-01-31T01:10:45.847Z,3.73
2023-01-31T01:13:15.339Z,3.70
2023-01-31T01:15:43.497Z,3.80
2023-01-31T01:18:11.634Z,3.53
2023-01-31T01:20:39.842Z,3.90
2023-01-31T01:23:08.005Z,4.57
2023-01-31T01:25:43.349Z,4.10
2023-01-31T01:28:11.484Z,4.13
2023-01-31T01:30:41.127Z,4.23
2023-01-31T01:33:09.475Z,4.17
2023-01-31T01:35:37.634Z,4.73
2023-01-31T01:38:05.765Z,4.50
2023-01-31T01:40:37.017Z,5.03
2023-01-31T01:43:05.289Z,4.57
2023-01-31T01:45:33.591Z,6.73
2023-01-31T01:48:05.418Z,5.60
2023-01-31T01:50:36.156Z,5.63
2023-01-31T01:53:05.405Z,5.17
2023-01-31T01:55:36.205Z,4.97
2023-01-31T01:58:06.288Z,5.43
2023-01-31T02:00:35.977Z,5.87
2023-01-31T02:03:06.822Z,5.73
2023-01-31T02:05:36.399Z,5.67
2023-01-31T02:08:04.952Z,4.63
2023-01-31T02:10:34.268Z,5.60
2023-01-31T02:13:02.939Z,5.27
2023-01-31T02:15:31.560Z,5.53
2023-01-31T02:17:59.741Z,5.43
2023-01-31T02:20:42.788Z,5.37
2023-01-31T02:23:24.834Z,5.87
2023-01-31T02:26:11.019Z,6.83
2023-01-31T02:28:47.947Z,6.73
2023-01-31T02:31:33.792Z,7.03
2023-01-31T02:34:07.147Z,5.93
2023-01-31T02:36:40.066Z,7.67
2023-01-31T02:39:13.723Z,6.73
2023-01-31T02:41:45.755Z,7.87
2023-01-31T02:44:33.177Z,7.30
2023-01-31T02:47:02.599Z,7.67
2023-01-31T02:49:37.844Z,7.03
2023-01-31T02:52:19.300Z,8.73
2023-01-31T02:55:12.202Z,8.53
2023-01-31T02:57:40.467Z,8.27
2023-01-31T03:00:10.265Z,8.50
2023-01-31T03:02:38.583Z,9.17
2023-01-31T03:05:08.487Z,7.83
2023-01-31T03:07:38.892Z,10.00
2023-01-31T03:10:14.990Z,8.63
2023-01-31T03:12:48.886Z,8.47
2023-01-31T03:15:50.157Z,9.63
2023-01-31T03:18:18.840Z,8.77
2023-01-31T03:20:51.816Z,9.93
2023-01-31T03:23:21.581Z,9.63
2023-01-31T03:25:50.071Z,8.93
2023-01-31T03:28:20.039Z,9.83
2023-01-31T03:30:50.346Z,10.03
2023-01-31T03:33:21.283Z,10.10
2023-01-31T03:35:53.471Z,10.37
2023-01-31T03:38:23.642Z,9.63
2023-01-31T03:40:56.828Z,10.43
2023-01-31T03:43:27.792Z,10.43
2023-01-31T03:45:58.828Z,9.70
2023-01-31T03:48:30.015Z,8.27
2023-01-31T03:51:01.586Z,8.83
2023-01-31T03:53:32.554Z,8.77
2023-01-31T03:56:02.577Z,8.63
2023-01-31T03:58:32.413Z,10.03
2023-01-31T04:01:03.377Z,10.00
2023-01-31T04:03:33.518Z,9.67
2023-01-31T04:06:03.178Z,8.20
2023-01-31T04:08:32.659Z,8.67
2023-01-31T04:11:01.343Z,8.57
2023-01-31T04:13:29.482Z,8.30
2023-01-31T04:15:57.640Z,8.03
2023-01-31T04:18:25.774Z,8.73
2023-01-31T04:20:53.958Z,9.17
2023-01-31T04:23:24.893Z,9.30
2023-01-31T04:25:54.333Z,8.63
2023-01-31T04:28:22.496Z,9.20
2023-01-31T04:30:54.219Z,8.30
2023-01-31T04:33:22.393Z,9.63
2023-01-31T04:35:52.105Z,8.13
2023-01-31T04:38:20.260Z,8.30
2023-01-31T04:40:49.764Z,7.63
2023-01-31T04:43:17.950Z,7.17
2023-01-31T04:45:46.163Z,6.53
2023-01-31T04:48:14.322Z,7.00
2023-01-31T04:50:42.478Z,7.40
2023-01-31T04:53:10.685Z,7.00
2023-01-31T04:55:38.902Z,6.57
2023-01-31T04:58:08.758Z,6.07
2023-01-31T05:00:37.091Z,5.97
2023-01-31T05:03:05.978Z,6.70
2023-01-31T05:05:36.319Z,5.80
2023-01-31T05:08:04.777Z,6.10
2023-01-31T05:10:32.912Z,7.07
2023-01-31T05:13:01.088Z,5.63
2023-01-31T05:15:30.612Z,6.00
2023-01-31T05:18:02.729Z,6.33
2023-01-31T05:20:31.932Z,5.97
2023-01-31T05:23:00.319Z,5.40
2023-01-31T05:25:28.486Z,5.80
2023-01-31T05:27:56.643Z,5.77
2023-01-31T05:30:25.130Z,6.33
2023-01-31T05:32:54.781Z,5.90
2023-01-31T05:35:23.347Z,5.60
2023-01-31T05:37:51.640Z,5.67
2023-01-31T05:40:19.853Z,5.83
2023-01-31T05:42:51.732Z,5.47
2023-01-31T05:45:20.244Z,5.20
2023-01-31T05:47:48.655Z,5.33
2023-01-31T05:50:18.458Z,5.70
2023-01-31T05:52:51.313Z,5.47
2023-01-31T05:55:19.859Z,5.07
2023-01-31T05:57:48.243Z,4.87
2023-01-31T06:00:17.029Z,4.97
2023-01-31T06:02:45.498Z,5.97
2023-01-31T06:05:13.873Z,5.20
2023-01-31T06:07:43.418Z,5.83
2023-01-31T06:10:12.675Z,5.30
2023-01-31T06:12:41.363Z,4.73
2023-01-31T06:15:09.900Z,4.87
2023-01-31T06:17:38.186Z,4.80
2023-01-31T06:20:07.260Z,4.27
2023-01-31T06:22:35.425Z,4.93
2023-01-31T06:25:05.416Z,4.40
2023-01-31T06:27:34.059Z,5.30
2023-01-31T06:30:02.641Z,4.40
2023-01-31T06:32:30.796Z,4.03
2023-01-31T06:34:58.967Z,5.00
2023-01-31T06:37:27.114Z,3.60
2023-01-31T06:39:55.599Z,3.87
2023-01-31T06:42:25.115Z,4.00
2023-01-31T06:44:53.267Z,4.93
2023-01-31T06:47:21.426Z,3.73
2023-01-31T06:49:49.561Z,4.20
2023-01-31T06:52:17.698Z,3.93
2023-01-31T06:54:45.886Z,4.70
2023-01-31T06:57:14.024Z,5.30
2023-01-31T06:59:43.503Z,3.77
2023-01-31T07:02:11.844Z,4.73
2023-01-31T07:04:40.013Z,4.20
2023-01-31T07:07:08.231Z,3.80
2023-01-31T07:09:36.434Z,4.23
2023-01-31T07:12:04.969Z,3.40
2023-01-31T07:14:33.135Z,3.60
2023-01-31T07:17:02.620Z,4.43
2023-01-31T07:19:31.145Z,4.47
2023-01-31T07:21:59.353Z,3.43
2023-01-31T07:24:27.558Z,4.03
2023-01-31T07:26:55.898Z,3.90
2023-01-31T07:29:24.768Z,5.43
2023-01-31T07:31:53.032Z,4.50
2023-01-31T07:34:23.070Z,3.60
2023-01-31T07:36:51.271Z,3.80
2023-01-31T07:39:19.675Z,4.07
2023-01-31T07:41:47.833Z,3.63
2023-01-31T07:44:16.026Z,3.60
2023-01-31T07:46:44.261Z,3.83
2023-01-31T07:49:13.092Z,3.70
2023-01-31T07:51:42.697Z,3.67
2023-01-31T07:54:11.065Z,3.53
2023-01-31T07:56:39.293Z,3.87
2023-01-31T07:59:07.515Z,4.17
2023-01-31T08:01:54.724Z,3.50
2023-01-31T08:04:23.078Z,3.40
2023-01-31T08:06:55.271Z,3.27
2023-01-31T08:09:23.457Z,4.03
2023-01-31T08:11:51.920Z,4.63
2023-01-31T08:14:23.619Z,4.53
2023-01-31T08:16:51.840Z,3.07
2023-01-31T08:19:20.023Z,3.90
2023-01-31T08:21:48.187Z,3.47
2023-01-31T08:24:17.703Z,3.57
2023-01-31T08:26:46.688Z,3.97
2023-01-31T08:29:14.949Z,3.53
2023-01-31T08:31:43.804Z,3.80
2023-01-31T08:34:12.134Z,3.93
2023-01-31T08:36:40.349Z,4.47
2023-01-31T08:39:08.624Z,3.60
2023-01-31T08:41:38.804Z,4.17
2023-01-31T08:44:07.349Z,4.27
2023-01-31T08:46:36.607Z,4.47
2023-01-31T08:49:05.988Z,3.53
2023-01-31T08:51:34.263Z,3.80
2023-01-31T08:54:02.427Z,4.00
2023-01-31T08:56:30.579Z,3.70
2023-01-31T08:59:00.149Z,3.83
2023-01-31T09:01:29.368Z,4.20
2023-01-31T09:03:58.093Z,3.77
2023-01-31T09:06:27.911Z,4.03
2023-01-31T09:08:57.514Z,4.67
2023-01-31T09:11:25.704Z,3.60
2023-01-31T09:13:53.884Z,4.90
2023-01-31T09:16:23.529Z,4.90
2023-01-31T09:18:51.703Z,4.17
2023-01-31T09:21:21.060Z,4.37
2023-01-31T09:23:50.001Z,4.83
2023-01-31T09:26:18.355Z,4.57
2023-01-31T09:28:46.644Z,4.67
2023-01-31T09:31:16.030Z,4.13
2023-01-31T09:33:45.715Z,4.47
2023-01-31T09:36:15.333Z,4.57
2023-01-31T09:38:43.520Z,4.53
2023-01-31T09:41:17.545Z,4.43
2023-01-31T09:43:47.627Z,4.30
2023-01-31T09:46:20.480Z,4.60
2023-01-31T09:48:52.151Z,4.13
2023-01-31T09:51:20.532Z,5.00
2023-01-31T09:53:49.150Z,4.67
2023-01-31T09:56:31.845Z,4.80
2023-01-31T09:59:04.897Z,5.00
2023-01-31T10:01:39.015Z,4.37
2023-01-31T10:04:18.660Z,5.10
2023-01-31T10:06:50.766Z,4.70
2023-01-31T10:09:22.819Z,5.53
2023-01-31T10:11:52.953Z,4.33
2023-01-31T10:14:23.865Z,5.10
2023-01-31T10:16:57.938Z,4.37
2023-01-31T10:19:30.592Z,4.30
2023-01-31T10:22:01.281Z,4.90
2023-01-31T10:24:32.793Z,4.23
2023-01-31T10:27:03.359Z,5.20
2023-01-31T10:29:34.533Z,5.10
2023-01-31T10:32:05.425Z,5.10
2023-01-31T10:34:39.145Z,5.00
2023-01-31T10:37:08.948Z,5.17
2023-01-31T10:39:39.325Z,5.43
2023-01-31T10:42:14.376Z,4.60
2023-01-31T10:44:51.587Z,5.13
2023-01-31T10:47:20.463Z,5.63
2023-01-31T10:49:50.559Z,4.90
2023-01-31T10:52:28.384Z,4.70
2023-01-31T10:55:01.607Z,4.87
2023-01-31T10:57:29.812Z,5.70
2023-01-31T10:59:58.193Z,5.63
2023-01-31T11:02:28.523Z,5.37
2023-01-31T11:04:58.809Z,5.60
2023-01-31T11:07:30.180Z,6.30
2023-01-31T11:09:58.519Z,5.57
2023-01-31T11:12:41.112Z,5.67
2023-01-31T11:15:15.910Z,5.63
2023-01-31T11:17:45.711Z,5.77
2023-01-31T11:20:23.905Z,5.63
2023-01-31T11:22:53.354Z,5.37
2023-01-31T11:25:23.045Z,5.60
2023-01-31T11:27:53.957Z,5.00
2023-01-31T11:30:24.236Z,5.10
2023-01-31T11:32:52.600Z,4.83
2023-01-31T11:35:26.964Z,4.77
2023-01-31T11:37:55.829Z,4.17
2023-01-31T11:40:27.912Z,4.60
2023-01-31T11:42:57.113Z,4.87
2023-01-31T11:45:27.534Z,4.67
2023-01-31T11:47:57.311Z,4.83
2023-01-31T11:50:28.560Z,4.47
2023-01-31T11:52:58.355Z,5.20
2023-01-31T11:55:27.066Z,4.97
2023-01-31T11:57:59.581Z,4.60
2023-01-31T12:00:28.917Z,5.30
2023-01-31T12:03:01.540Z,4.90
2023-01-31T12:05:39.189Z,4.40
2023-01-31T12:08:07.377Z,4.53
2023-01-31T12:10:37.769Z,4.90
2023-01-31T12:13:18.852Z,4.37
2023-01-31T12:15:50.269Z,4.50
2023-01-31T12:18:22.984Z,5.07
2023-01-31T12:20:55.711Z,4.40
2023-01-31T12:23:28.281Z,4.60
2023-01-31T12:26:05.581Z,4.13
2023-01-31T12:28:37.628Z,5.10
2023-01-31T12:31:12.269Z,4.40
2023-01-31T12:33:46.471Z,4.47
2023-01-31T12:36:24.094Z,4.70
2023-01-31T12:39:00.516Z,4.47
2023-01-31T12:41:33.465Z,4.47
2023-01-31T12:44:16.967Z,4.87
2023-01-31T12:47:08.576Z,4.63
2023-01-31T12:49:52.014Z,4.70
2023-01-31T12:52:25.822Z,4.83
2023-01-31T12:55:00.624Z,4.83
2023-01-31T12:57:37.014Z,4.87
2023-01-31T13:00:10.683Z,5.07
2023-01-31T13:02:42.434Z,4.83
2023-01-31T13:05:13.977Z,4.77
2023-01-31T13:07:46.659Z,5.10
2023-01-31T13:10:22.284Z,4.80
2023-01-31T13:12:50.738Z,4.73
2023-01-31T13:15:23.027Z,5.13
2023-01-31T13:17:54.137Z,5.27
2023-01-31T13:20:27.592Z,5.67
2023-01-31T13:22:59.391Z,5.63
2023-01-31T13:25:36.206Z,4.60
2023-01-31T13:28:07.973Z,4.97
2023-01-31T13:30:37.783Z,5.00
2023-01-31T13:33:10.386Z,5.20
2023-01-31T13:35:41.195Z,5.43
2023-01-31T13:38:15.013Z,6.20
2023-01-31T13:40:46.653Z,5.40
2023-01-31T13:43:15.930Z,5.43
2023-01-31T13:45:46.246Z,5.33
2023-01-31T13:48:20.276Z,5.67
2023-01-31T13:50:51.900Z,5.63
2023-01-31T13:53:23.404Z,6.37
2023-01-31T13:55:52.206Z,6.73
2023-01-31T13:58:21.778Z,6.10
2023-01-31T14:00:51.811Z,6.47
2023-01-31T14:03:20.923Z,6.37
2023-01-31T14:05:53.477Z,6.80
2023-01-31T14:08:54.517Z,6.40
2023-01-31T14:11:36.575Z,7.40
2023-01-31T14:14:19.918Z,6.80
2023-01-31T14:16:51.696Z,7.37
2023-01-31T14:19:32.802Z,6.97
2023-01-31T14:22:05.931Z,7.47
2023-01-31T14:25:07.735Z,6.53
2023-01-31T14:27:38.510Z,6.50
2023-01-31T14:30:11.940Z,6.50
2023-01-31T14:32:42.304Z,6.60
2023-01-31T14:35:20.217Z,7.70
2023-01-31T14:37:54.376Z,6.70
2023-01-31T14:40:26.985Z,6.13
2023-01-31T14:43:10.428Z,6.67
2023-01-31T14:45:44.287Z,6.23
2023-01-31T14:48:16.599Z,6.23
2023-01-31T14:50:57.508Z,6.60
2023-01-31T14:53:31.918Z,6.53
2023-01-31T14:56:15.155Z,6.53
2023-01-31T14:58:45.307Z,5.67
2023-01-31T15:01:15.907Z,6.53
2023-01-31T15:03:50.862Z,7.00
2023-01-31T15:06:23.561Z,6.63
2023-01-31T15:08:52.322Z,6.47
2023-01-31T15:11:42.278Z,6.87
2023-01-31T15:14:33.502Z,6.70
2023-01-31T15:17:05.676Z,6.80
2023-01-31T15:19:36.026Z,6.80
2023-01-31T15:22:06.482Z,6.60
2023-01-31T15:24:35.572Z,6.23
2023-01-31T15:27:05.746Z,6.63
2023-01-31T15:29:35.811Z,6.20
2023-01-31T15:32:10.525Z,6.50
2023-01-31T15:34:41.787Z,6.43
2023-01-31T15:37:11.486Z,6.40
2023-01-31T15:39:42.075Z,6.10
2023-01-31T15:42:22.584Z,6.90
2023-01-31T15:44:50.905Z,6.10
2023-01-31T15:47:23.893Z,6.57
2023-01-31T15:49:52.064Z,6.57
2023-01-31T15:52:21.160Z,6.47
2023-01-31T15:54:53.456Z,7.80
2023-01-31T15:57:22.403Z,7.50
2023-01-31T15:59:50.646Z,7.57
2023-01-31T16:02:22.955Z,6.80
2023-01-31T16:04:52.540Z,7.60
2023-01-31T16:07:21.564Z,7.40
2023-01-31T16:09:51.285Z,6.80
2023-01-31T16:12:19.646Z,8.30
2023-01-31T16:14:49.275Z,6.53
2023-01-31T16:17:18.884Z,7.37
2023-01-31T16:19:51.353Z,7.20
2023-01-31T16:22:26.850Z,7.60
2023-01-31T16:24:55.914Z,6.53
2023-01-31T16:27:24.193Z,6.43
2023-01-31T16:29:53.635Z,7.47
2023-01-31T16:32:23.399Z,6.53
2023-01-31T16:34:56.312Z,7.10
2023-01-31T16:37:36.545Z,7.47
2023-01-31T16:40:07.144Z,7.60
2023-01-31T16:42:38.666Z,8.10
2023-01-31T16:45:28.016Z,9.47
2023-01-31T16:47:56.484Z,8.70
2023-01-31T16:50:43.244Z,7.83
2023-01-31T16:53:18.685Z,8.07
2023-01-31T16:55:47.077Z,9.10
2023-01-31T16:58:35.225Z,8.83
2023-01-31T17:01:11.657Z,8.33
2023-01-31T17:03:39.828Z,8.23
2023-01-31T17:06:08.331Z,8.07
2023-01-31T17:08:41.980Z,8.83
2023-01-31T17:11:19.661Z,9.23
2023-01-31T17:13:51.820Z,8.60
2023-01-31T17:16:25.014Z,8.60
2023-01-31T17:18:53.657Z,9.10
2023-01-31T17:21:22.715Z,9.87
2023-01-31T17:23:52.647Z,10.03
2023-01-31T17:26:22.126Z,9.57
2023-01-31T17:29:00.849Z,11.10
2023-01-31T17:31:31.254Z,11.87
2023-01-31T17:33:59.631Z,12.83
2023-01-31T17:36:27.827Z,12.87
2023-01-31T17:38:57.353Z,12.33
2023-01-31T17:41:25.659Z,13.43
2023-01-31T17:43:53.820Z,13.90
2023-01-31T17:46:22.047Z,14.57
2023-01-31T17:48:50.212Z,13.97
2023-01-31T17:51:18.438Z,13.33
2023-01-31T17:53:50.604Z,13.40
2023-01-31T17:56:20.328Z,13.73
2023-01-31T17:58:49.291Z,12.93
2023-01-31T18:01:17.605Z,13.27
2023-01-31T18:03:45.769Z,13.83
2023-01-31T18:06:14.113Z,14.63
2023-01-31T18:08:42.272Z,17.03
2023-01-31T18:11:11.073Z,13.80
2023-01-31T18:13:40.665Z,17.17
2023-01-31T18:16:10.020Z,15.40
2023-01-31T18:18:40.344Z,14.87
2023-01-31T18:21:10.405Z,15.97
2023-01-31T18:23:38.622Z,16.83
2023-01-31T18:26:06.985Z,15.57
2023-01-31T18:28:35.365Z,17.47
2023-01-31T18:31:05.186Z,16.73
2023-01-31T18:33:34.344Z,14.83
2023-01-31T18:36:02.765Z,14.73
2023-01-31T18:38:31.466Z,14.07
2023-01-31T18:41:00.144Z,14.57
2023-01-31T18:43:28.400Z,13.90
2023-01-31T18:45:56.841Z,12.53
2023-01-31T18:48:26.407Z,15.13
2023-01-31T18:50:55.073Z,15.20
2023-01-31T18:56:06.924Z,13.40
2023-01-31T18:58:35.571Z,14.60
2023-01-31T19:01:07.729Z,14.00
2023-01-31T19:03:37.376Z,12.83
2023-01-31T19:06:06.690Z,12.20
2023-01-31T19:08:34.872Z,10.27
2023-01-31T19:11:07.276Z,10.50
2023-01-31T19:13:35.717Z,10.23
2023-01-31T19:16:04.544Z,10.37
2023-01-31T19:18:32.773Z,9.53
2023-01-31T19:21:02.734Z,9.27
2023-01-31T19:23:30.878Z,9.07
2023-01-31T19:25:59.034Z,7.63
2023-01-31T19:28:27.204Z,7.53
2023-01-31T19:30:55.408Z,6.07
2023-01-31T19:33:23.614Z,5.00
2023-01-31T19:35:51.781Z,4.90
2023-01-31T19:38:21.268Z,4.70
2023-01-31T19:40:51.593Z,4.73
2023-01-31T19:43:19.788Z,4.70
2023-01-31T19:45:48.210Z,5.20
2023-01-31T19:48:16.394Z,6.07
2023-01-31T19:50:44.528Z,6.67
2023-01-31T19:53:12.912Z,6.80
2023-01-31T19:55:42.404Z,7.43
2023-01-31T19:58:10.649Z,8.27
2023-01-31T20:00:38.817Z,8.27
2023-01-31T20:03:06.962Z,8.83
2023-01-31T20:05:35.150Z,10.20
2023-01-31T20:08:03.289Z,11.00
2023-01-31T20:10:31.764Z,11.37
2023-01-31T20:13:02.480Z,12.67
2023-01-31T20:15:30.666Z,12.50
2023-01-31T20:17:59.178Z,13.17
2023-01-31T20:20:27.689Z,14.03
2023-01-31T20:22:55.848Z,14.07
2023-01-31T20:25:24.002Z,12.83
2023-01-31T20:27:52.119Z,14.37
2023-01-31T20:30:23.360Z,13.37
2023-01-31T20:32:51.669Z,13.33
2023-01-31T20:35:20.075Z,13.63
2023-01-31T20:37:48.271Z,12.70
2023-01-31T20:40:16.517Z,12.30
2023-01-31T20:42:44.691Z,12.27
2023-01-31T20:45:13.053Z,13.00
2023-01-31T20:47:42.555Z,11.93
2023-01-31T20:50:11.420Z,12.83
2023-01-31T20:52:39.564Z,12.90
2023-01-31T20:55:08.361Z,13.60
2023-01-31T20:57:36.508Z,13.17
2023-01-31T21:00:04.983Z,12.47
2023-01-31T21:02:33.181Z,13.53
2023-01-31T21:05:02.732Z,14.33
2023-01-31T21:07:30.898Z,13.87
2023-01-31T21:09:59.027Z,13.87
2023-01-31T21:12:27.191Z,13.47
2023-01-31T21:14:55.638Z,13.17
2023-01-31T21:17:37.788Z,13.30
2023-01-31T21:20:10.693Z,12.53
2023-01-31T21:22:38.829Z,13.57
2023-01-31T21:25:07.470Z,14.10
2023-01-31T21:27:35.693Z,12.93
2023-01-31T21:30:03.902Z,14.43
2023-01-31T21:32:32.066Z,14.17
2023-01-31T21:35:01.119Z,14.07
2023-01-31T21:37:31.556Z,14.73
2023-01-31T21:39:59.708Z,13.60
2023-01-31T21:42:26.889Z,13.23
2023-01-31T21:44:55.060Z,13.63
2023-01-31T21:47:23.230Z,13.13
2023-01-31T21:49:51.387Z,14.80
2023-01-31T21:52:19.548Z,14.80
2023-01-31T21:54:49.058Z,13.87
2023-01-31T21:57:17.213Z,13.93
2023-01-31T21:59:46.748Z,13.97
2023-01-31T22:02:14.915Z,13.00
2023-01-31T22:04:43.081Z,13.80
2023-01-31T22:07:11.410Z,13.50
2023-01-31T22:09:39.547Z,13.13
2023-01-31T22:12:09.254Z,14.03
2023-01-31T22:14:37.396Z,13.90
2023-01-31T22:17:05.556Z,14.07
2023-01-31T22:19:34.098Z,14.70
2023-01-31T22:22:02.230Z,14.43
2023-01-31T22:24:30.480Z,12.93
2023-01-31T22:26:58.612Z,14.33
2023-01-31T22:29:28.110Z,13.90
2023-01-31T22:31:56.648Z,14.20
2023-01-31T22:34:24.850Z,13.87
2023-01-31T22:36:52.988Z,14.30
2023-01-31T22:39:21.148Z,13.00
2023-01-31T22:41:49.309Z,13.70
2023-01-31T22:44:17.502Z,13.00
2023-01-31T22:46:47.111Z,12.40
2023-01-31T22:49:15.253Z,13.27
2023-01-31T22:51:43.425Z,12.77
2023-01-31T22:54:11.730Z,10.60
2023-01-31T22:56:39.901Z,12.33
2023-01-31T22:59:09.444Z,11.07
2023-01-31T23:01:38.408Z,10.43
2023-01-31T23:04:09.385Z,10.53
2023-01-31T23:06:38.430Z,9.20
2023-01-31T23:09:06.997Z,8.33
2023-01-31T23:11:35.129Z,9.03
2023-01-31T23:14:03.365Z,9.70
2023-01-31T23:16:45.471Z,8.43
2023-01-31T23:19:15.971Z,8.87
2023-01-31T23:21:44.853Z,9.03
2023-01-31T23:24:14.313Z,8.93
2023-01-31T23:26:42.637Z,9.73
2023-01-31T23:29:10.867Z,8.30
2023-01-31T23:31:39.144Z,9.67
2023-01-31T23:34:07.760Z,10.00
2023-01-31T23:36:37.525Z,10.40
2023-01-31T23:39:05.883Z,10.10
2023-01-31T23:41:34.109Z,11.10
2023-01-31T23:44:02.300Z,12.07
2023-01-31T23:46:30.481Z,12.33
2023-01-31T23:48:58.754Z,13.30
2023-01-31T23:51:28.407Z,12.90
2023-01-31T23:53:57.908Z,12.80
2023-01-31T23:56:26.433Z,14.07
2023-01-31T23:58:54.815Z,13.83
